Time;durP1;ratioP1;P1;durP2;ratioP2;P2;SDS_P1;SDS_P2;PMS_P1;PMS_P2;Temp;Humidity;BMP_temperature;BMP_pressure;BME280_temperature;BME280_humidity;BME280_pressure;Samples;Min_cycle;Max_cycle;Signal;HPM_P1;HPM_P2
2023/10/28 00:01:12;;;;;;;5.20;3.30;;;;;;;;;;5116100;28;20411;-78
2023/10/28 00:03:38;;;;;;;4.70;2.10;;;;;;;;;;5116181;28;20510;-80
2023/10/28 00:06:04;;;;;;;4.23;3.40;;;;;;;;;;5115758;28;20467;-79
2023/10/28 00:08:30;;;;;;;4.03;3.33;;;;;;;;;;5116053;28;20409;-79
2023/10/28 00:10:56;;;;;;;5.33;3.53;;;;;;;;;;5115501;28;20399;-79
2023/10/28 00:13:23;;;;;;;4.33;2.80;;;;;;;;;;5116016;28;20767;-81
2023/10/28 00:15:48;;;;;;;4.57;3.30;;;;;;;;;;5115961;28;20774;-79
2023/10/28 00:18:15;;;;;;;3.80;1.97;;;;;;;;;;5115926;28;20413;-82
2023/10/28 00:20:44;;;;;;;5.30;2.60;;;;;;;;;;5115838;28;20234;-80
2023/10/28 00:23:11;;;;;;;3.90;2.83;;;;;;;;;;5110177;28;20485;-81
2023/10/28 00:25:37;;;;;;;5.07;2.57;;;;;;;;;;5110046;28;20440;-80
2023/10/28 00:28:04;;;;;;;4.50;2.87;;;;;;;;;;5094055;28;20810;-82
2023/10/28 00:30:30;;;;;;;4.07;3.10;;;;;;;;;;5094498;28;20826;-81
2023/10/28 00:32:59;;;;;;;6.50;3.40;;;;;;;;;;5095020;28;20412;-82
2023/10/28 00:35:26;;;;;;;4.20;2.20;;;;;;;;;;5094808;28;20404;-82
2023/10/28 00:37:52;;;;;;;4.87;2.87;;;;;;;;;;5095027;28;20442;-82
2023/10/28 00:40:18;;;;;;;3.23;2.80;;;;;;;;;;5089349;28;20414;-82
2023/10/28 00:42:47;;;;;;;4.00;2.50;;;;;;;;;;5094603;28;20473;-82
2023/10/28 00:45:15;;;;;;;3.60;1.90;;;;;;;;;;5095404;28;20440;-80
2023/10/28 00:47:43;;;;;;;4.80;2.70;;;;;;;;;;5094447;28;20884;-80
2023/10/28 00:50:10;;;;;;;3.77;2.17;;;;;;;;;;5094615;28;20430;-79
2023/10/28 00:52:40;;;;;;;3.73;2.50;;;;;;;;;;5094549;28;20538;-81
2023/10/28 00:55:10;;;;;;;3.23;2.53;;;;;;;;;;5094219;28;20402;-80
2023/10/28 00:57:36;;;;;;;3.83;2.53;;;;;;;;;;5094798;28;20884;-82
2023/10/28 01:00:02;;;;;;;3.40;2.30;;;;;;;;;;5094466;28;20416;-81
2023/10/28 01:02:28;;;;;;;4.03;2.20;;;;;;;;;;5094308;28;20533;-81
2023/10/28 01:04:54;;;;;;;3.40;2.77;;;;;;;;;;5094319;28;20404;-81
2023/10/28 01:07:21;;;;;;;5.30;2.93;;;;;;;;;;5094280;28;20450;-81
2023/10/28 01:09:47;;;;;;;5.90;3.17;;;;;;;;;;5093930;28;20465;-81
2023/10/28 01:12:14;;;;;;;3.13;1.83;;;;;;;;;;5094102;28;20790;-80
2023/10/28 01:14:43;;;;;;;3.70;2.03;;;;;;;;;;5094119;28;20412;-80
2023/10/28 01:17:13;;;;;;;3.10;2.37;;;;;;;;;;5094164;28;20810;-81
2023/10/28 01:19:39;;;;;;;3.10;1.77;;;;;;;;;;5091908;28;20470;-80
2023/10/28 01:22:05;;;;;;;3.10;1.90;;;;;;;;;;5094542;28;20824;-78
2023/10/28 01:24:35;;;;;;;4.43;2.33;;;;;;;;;;5094127;28;20422;-79
2023/10/28 01:27:01;;;;;;;4.20;2.67;;;;;;;;;;5094541;28;20412;-79
2023/10/28 01:29:28;;;;;;;5.00;2.10;;;;;;;;;;5094421;28;20768;-78
2023/10/28 01:31:54;;;;;;;3.13;1.83;;;;;;;;;;5094483;28;20412;-80
2023/10/28 01:34:21;;;;;;;4.00;2.40;;;;;;;;;;5094322;28;20420;-80
2023/10/28 01:36:48;;;;;;;4.37;2.33;;;;;;;;;;5094413;28;20418;-80
2023/10/28 01:39:15;;;;;;;5.23;2.50;;;;;;;;;;5093304;28;20738;-80
2023/10/28 01:41:41;;;;;;;3.50;2.40;;;;;;;;;;5094161;28;20877;-82
2023/10/28 01:44:07;;;;;;;5.90;1.60;;;;;;;;;;5094220;28;20448;-82
2023/10/28 01:46:33;;;;;;;5.50;2.47;;;;;;;;;;5094129;28;20922;-84
2023/10/28 01:48:59;;;;;;;4.97;2.77;;;;;;;;;;5093835;28;20451;-85
2023/10/28 01:51:25;;;;;;;5.00;2.70;;;;;;;;;;5093899;28;20492;-79
2023/10/28 01:53:51;;;;;;;3.93;2.17;;;;;;;;;;5092314;28;20762;-84
2023/10/28 01:56:17;;;;;;;3.47;2.20;;;;;;;;;;5094011;28;20442;-84
2023/10/28 01:58:43;;;;;;;4.80;2.40;;;;;;;;;;5093899;28;20767;-86
2023/10/28 02:01:09;;;;;;;3.13;2.27;;;;;;;;;;5093797;28;20404;-82
2023/10/28 02:03:35;;;;;;;5.67;2.63;;;;;;;;;;5093858;28;20215;-86
2023/10/28 02:06:01;;;;;;;4.30;3.00;;;;;;;;;;5092479;28;20412;-84
2023/10/28 02:08:27;;;;;;;4.40;2.40;;;;;;;;;;5093749;28;20179;-84
2023/10/28 02:10:53;;;;;;;4.80;2.60;;;;;;;;;;5093375;28;20904;-81
2023/10/28 02:13:19;;;;;;;3.90;2.87;;;;;;;;;;5093676;28;20405;-85
2023/10/28 02:15:48;;;;;;;3.53;2.47;;;;;;;;;;5093655;28;20902;-84
2023/10/28 02:18:15;;;;;;;4.80;3.43;;;;;;;;;;5093573;28;20500;-84
2023/10/28 02:20:41;;;;;;;3.80;3.17;;;;;;;;;;5093577;28;20418;-84
2023/10/28 02:23:10;;;;;;;3.83;2.77;;;;;;;;;;5092055;28;20533;-79
2023/10/28 02:25:36;;;;;;;5.33;2.73;;;;;;;;;;5093198;28;20411;-78
2023/10/28 02:28:02;;;;;;;5.20;2.80;;;;;;;;;;5093407;28;20501;-80
2023/10/28 02:30:28;;;;;;;5.87;3.37;;;;;;;;;;5093319;28;20196;-78
2023/10/28 02:32:54;;;;;;;4.43;3.00;;;;;;;;;;5093304;28;20413;-78
2023/10/28 02:35:20;;;;;;;4.60;2.47;;;;;;;;;;5093347;28;20215;-80
2023/10/28 02:37:46;;;;;;;6.20;2.83;;;;;;;;;;5093312;28;20409;-80
2023/10/28 02:40:12;;;;;;;7.27;3.00;;;;;;;;;;5093018;28;20412;-82
2023/10/28 02:42:38;;;;;;;3.60;2.70;;;;;;;;;;5093157;28;20476;-81
2023/10/28 02:45:07;;;;;;;3.03;2.30;;;;;;;;;;5093148;28;20747;-78
2023/10/28 02:47:33;;;;;;;5.60;3.70;;;;;;;;;;5093087;28;20213;-79
2023/10/28 02:49:59;;;;;;;4.67;3.73;;;;;;;;;;5093237;28;20979;-79
2023/10/28 02:52:25;;;;;;;5.60;3.00;;;;;;;;;;5090915;28;20431;-79
2023/10/28 02:54:52;;;;;;;5.73;3.90;;;;;;;;;;5092755;28;20429;-80
2023/10/28 02:57:17;;;;;;;4.60;3.40;;;;;;;;;;5093091;28;20420;-79
2023/10/28 02:59:44;;;;;;;5.30;2.80;;;;;;;;;;5093086;28;20915;-81
2023/10/28 03:02:10;;;;;;;7.30;4.03;;;;;;;;;;5092998;28;20548;-80
2023/10/28 03:04:36;;;;;;;4.77;2.73;;;;;;;;;;5093041;28;20419;-79
2023/10/28 03:07:02;;;;;;;5.70;3.53;;;;;;;;;;5092959;28;20212;-79
2023/10/28 03:09:30;;;;;;;7.20;4.50;;;;;;;;;;5092688;28;20408;-80
2023/10/28 03:11:56;;;;;;;7.00;4.33;;;;;;;;;;5092951;28;20439;-79
2023/10/28 03:14:22;;;;;;;11.27;4.87;;;;;;;;;;5092882;28;20431;-80
2023/10/28 03:16:48;;;;;;;6.10;4.13;;;;;;;;;;5092848;28;20407;-79
2023/10/28 03:19:14;;;;;;;6.40;3.90;;;;;;;;;;5092813;28;20419;-80
2023/10/28 03:21:40;;;;;;;7.07;3.77;;;;;;;;;;5092793;28;20502;-82
2023/10/28 03:24:06;;;;;;;4.83;3.97;;;;;;;;;;5092494;28;20410;-80
2023/10/28 03:26:32;;;;;;;9.10;4.80;;;;;;;;;;5092785;28;20409;-83
2023/10/28 03:28:59;;;;;;;5.17;3.60;;;;;;;;;;5092772;28;20913;-86
2023/10/28 03:31:26;;;;;;;5.90;4.57;;;;;;;;;;5092857;28;20501;-82
2023/10/28 03:33:52;;;;;;;7.87;4.00;;;;;;;;;;5092879;28;20409;-86
2023/10/28 03:36:18;;;;;;;9.77;3.97;;;;;;;;;;5092995;28;20528;-81
2023/10/28 03:38:44;;;;;;;6.67;3.87;;;;;;;;;;5092873;28;20415;-87
2023/10/28 03:41:10;;;;;;;7.13;4.40;;;;;;;;;;5092920;28;20416;-86
2023/10/28 03:43:36;;;;;;;6.27;4.20;;;;;;;;;;5093110;28;20411;-88
2023/10/28 03:46:03;;;;;;;8.13;4.40;;;;;;;;;;5093091;28;20400;-85
2023/10/28 03:48:29;;;;;;;8.77;4.73;;;;;;;;;;5092796;28;20461;-87
2023/10/28 03:51:00;;;;;;;7.03;4.60;;;;;;;;;;5092576;28;20408;-82
2023/10/28 03:53:26;;;;;;;6.87;5.50;;;;;;;;;;5092274;28;20777;-82
2023/10/28 03:55:52;;;;;;;5.57;3.90;;;;;;;;;;5092567;28;20411;-83
2023/10/28 03:58:18;;;;;;;9.23;5.57;;;;;;;;;;5092563;28;20422;-82
2023/10/28 04:00:44;;;;;;;9.30;4.50;;;;;;;;;;5092453;28;20434;-81
2023/10/28 04:03:10;;;;;;;5.13;4.30;;;;;;;;;;5094154;28;20471;-81
2023/10/28 04:05:36;;;;;;;7.40;4.90;;;;;;;;;;5096045;28;20176;-82
2023/10/28 04:08:02;;;;;;;9.13;5.20;;;;;;;;;;5096040;28;20431;-82
2023/10/28 04:10:28;;;;;;;6.30;5.00;;;;;;;;;;5095699;28;20907;-83
2023/10/28 04:12:54;;;;;;;9.57;6.20;;;;;;;;;;5095978;28;20440;-82
2023/10/28 04:15:20;;;;;;;6.00;4.47;;;;;;;;;;5095990;28;20177;-82
2023/10/28 04:17:46;;;;;;;6.93;4.97;;;;;;;;;;5094581;28;20673;-81
2023/10/28 04:20:12;;;;;;;10.60;4.90;;;;;;;;;;5095768;28;20424;-82
2023/10/28 04:22:38;;;;;;;12.20;5.53;;;;;;;;;;5095598;28;20576;-81
2023/10/28 04:25:05;;;;;;;13.00;5.57;;;;;;;;;;5095361;28;20401;-80
2023/10/28 04:27:32;;;;;;;8.63;5.20;;;;;;;;;;5095743;28;20430;-83
2023/10/28 04:29:57;;;;;;;11.23;6.33;;;;;;;;;;5095690;28;20469;-80
2023/10/28 04:32:24;;;;;;;9.67;5.90;;;;;;;;;;5095562;28;20415;-80
2023/10/28 04:34:51;;;;;;;7.70;5.80;;;;;;;;;;5095649;28;20479;-80
2023/10/28 04:37:17;;;;;;;7.00;5.53;;;;;;;;;;5095507;28;20424;-81
2023/10/28 04:39:43;;;;;;;9.47;5.43;;;;;;;;;;5095060;28;20495;-79
2023/10/28 04:42:09;;;;;;;8.30;5.70;;;;;;;;;;5095348;28;20562;-81
2023/10/28 04:44:35;;;;;;;10.60;6.70;;;;;;;;;;5095302;28;20412;-79
2023/10/28 04:47:03;;;;;;;9.83;6.30;;;;;;;;;;5095150;28;20437;-79
2023/10/28 04:49:30;;;;;;;9.40;5.47;;;;;;;;;;5095334;28;20412;-79
2023/10/28 04:51:56;;;;;;;7.47;6.00;;;;;;;;;;5095175;28;20919;-80
2023/10/28 04:54:22;;;;;;;9.93;7.03;;;;;;;;;;5095128;28;20920;-80
2023/10/28 04:56:51;;;;;;;10.27;6.67;;;;;;;;;;5095044;28;20404;-81
2023/10/28 04:59:17;;;;;;;10.83;7.00;;;;;;;;;;5095139;28;20407;-80
2023/10/28 05:01:43;;;;;;;9.67;7.33;;;;;;;;;;5094946;28;20960;-80
2023/10/28 05:04:09;;;;;;;9.03;6.43;;;;;;;;;;5094984;28;20427;-81
2023/10/28 05:06:35;;;;;;;13.20;7.10;;;;;;;;;;5094990;28;20439;-80
2023/10/28 05:09:01;;;;;;;10.40;6.67;;;;;;;;;;5094520;28;20840;-80
2023/10/28 05:11:27;;;;;;;12.27;7.93;;;;;;;;;;5094797;28;20411;-80
2023/10/28 05:13:53;;;;;;;8.93;6.47;;;;;;;;;;5093947;28;20439;-83
2023/10/28 05:16:19;;;;;;;9.47;6.63;;;;;;;;;;5094533;28;20823;-82
2023/10/28 05:18:45;;;;;;;9.67;6.13;;;;;;;;;;5094698;28;20497;-84
2023/10/28 05:21:11;;;;;;;8.60;6.53;;;;;;;;;;5093296;28;20408;-81
2023/10/28 05:23:38;;;;;;;10.63;6.10;;;;;;;;;;5094286;28;20481;-79
2023/10/28 05:26:04;;;;;;;10.80;6.67;;;;;;;;;;5093265;28;20492;-80
2023/10/28 05:28:30;;;;;;;10.77;6.87;;;;;;;;;;5094528;28;20424;-81
2023/10/28 05:30:57;;;;;;;10.43;7.37;;;;;;;;;;5094453;28;20436;-80
2023/10/28 05:33:23;;;;;;;8.57;6.13;;;;;;;;;;5093160;28;20467;-81
2023/10/28 05:35:49;;;;;;;11.43;7.23;;;;;;;;;;5094384;28;20420;-83
2023/10/28 05:38:15;;;;;;;14.17;7.13;;;;;;;;;;5094534;28;20772;-83
2023/10/28 05:40:41;;;;;;;9.80;6.90;;;;;;;;;;5094633;28;20403;-80
2023/10/28 05:43:08;;;;;;;11.20;7.07;;;;;;;;;;5094211;28;21000;-82
2023/10/28 05:45:34;;;;;;;8.40;6.30;;;;;;;;;;5094218;28;20403;-84
2023/10/28 05:47:59;;;;;;;8.70;7.13;;;;;;;;;;5093931;28;20467;-80
2023/10/28 05:50:27;;;;;;;11.37;7.77;;;;;;;;;;5094150;28;20177;-79
2023/10/28 05:52:53;;;;;;;10.07;5.90;;;;;;;;;;5093920;28;20936;-80
2023/10/28 05:55:18;;;;;;;13.17;7.43;;;;;;;;;;5093693;28;20400;-82
2023/10/28 05:57:45;;;;;;;12.67;6.60;;;;;;;;;;5093911;28;20419;-82
2023/10/28 06:00:11;;;;;;;12.17;7.03;;;;;;;;;;5093927;28;20227;-81
2023/10/28 06:02:37;;;;;;;10.37;6.33;;;;;;;;;;5093877;28;20509;-85
2023/10/28 06:05:03;;;;;;;8.03;5.30;;;;;;;;;;5093888;28;20409;-82
2023/10/28 06:07:30;;;;;;;10.73;6.00;;;;;;;;;;5093818;28;20408;-79
2023/10/28 06:09:56;;;;;;;9.90;6.53;;;;;;;;;;5093417;28;20506;-79
2023/10/28 06:12:21;;;;;;;10.47;7.53;;;;;;;;;;5093615;28;20432;-81
2023/10/28 06:14:47;;;;;;;11.57;7.37;;;;;;;;;;5092317;28;20407;-82
2023/10/28 06:17:13;;;;;;;10.70;6.33;;;;;;;;;;5093593;28;20230;-79
2023/10/28 06:19:43;;;;;;;10.77;6.00;;;;;;;;;;5093668;28;20886;-80
2023/10/28 06:22:11;;;;;;;9.77;5.80;;;;;;;;;;5093527;28;20467;-80
2023/10/28 06:24:40;;;;;;;13.30;6.53;;;;;;;;;;5093142;28;20414;-79
2023/10/28 06:27:08;;;;;;;10.80;5.90;;;;;;;;;;5091928;28;20446;-82
2023/10/28 06:29:34;;;;;;;12.20;5.77;;;;;;;;;;5093506;28;20504;-82
2023/10/28 06:32:00;;;;;;;9.90;6.30;;;;;;;;;;5093205;28;20508;-84
2023/10/28 06:34:29;;;;;;;9.43;5.30;;;;;;;;;;5079382;28;20462;-82
2023/10/28 06:36:55;;;;;;;10.63;6.23;;;;;;;;;;5087870;28;20937;-81
2023/10/28 06:39:21;;;;;;;9.80;6.03;;;;;;;;;;5072768;28;20408;-81
2023/10/28 06:41:47;;;;;;;10.63;6.67;;;;;;;;;;5081366;28;20507;-85
2023/10/28 06:44:13;;;;;;;10.20;5.30;;;;;;;;;;5093528;28;20417;-90
2023/10/28 06:46:39;;;;;;;7.73;4.97;;;;;;;;;;5093260;28;20782;-85
2023/10/28 06:49:06;;;;;;;6.67;4.93;;;;;;;;;;5085469;28;20964;-86
2023/10/28 06:51:32;;;;;;;7.30;4.90;;;;;;;;;;5072960;28;20414;-87
2023/10/28 06:53:58;;;;;;;10.50;4.80;;;;;;;;;;5072588;28;20407;-83
2023/10/28 06:56:25;;;;;;;11.35;6.45;;;;;;;;;;5072525;28;20450;-82
2023/10/28 06:58:51;;;;;;;9.33;5.30;;;;;;;;;;5072954;28;20252;-83
2023/10/28 07:01:18;;;;;;;12.00;6.68;;;;;;;;;;5072114;28;20829;-80
2023/10/28 07:03:44;;;;;;;6.53;5.10;;;;;;;;;;5072821;28;20176;-79
2023/10/28 07:06:14;;;;;;;8.80;6.17;;;;;;;;;;5072786;28;20403;-78
2023/10/28 07:08:40;;;;;;;9.50;5.63;;;;;;;;;;5072429;28;20803;-81
2023/10/28 07:11:06;;;;;;;9.10;5.53;;;;;;;;;;5072800;28;20411;-79
2023/10/28 07:13:32;;;;;;;10.13;6.37;;;;;;;;;;5072769;28;20418;-78
2023/10/28 07:16:04;;;;;;;10.10;5.83;;;;;;;;;;5072698;28;20404;-79
2023/10/28 07:18:30;;;;;;;9.90;5.30;;;;;;;;;;5072644;28;20412;-79
2023/10/28 07:20:57;;;;;;;8.20;5.20;;;;;;;;;;5072609;28;20480;-80
2023/10/28 07:23:26;;;;;;;9.60;5.50;;;;;;;;;;5072205;28;20459;-79
2023/10/28 07:25:52;;;;;;;11.83;6.50;;;;;;;;;;5071422;28;20407;-80
2023/10/28 07:28:18;;;;;;;9.10;5.30;;;;;;;;;;5072621;28;20824;-80
2023/10/28 07:30:51;;;;;;;9.77;5.50;;;;;;;;;;5072548;28;20405;-78
2023/10/28 07:33:18;;;;;;;13.93;6.80;;;;;;;;;;5072634;28;20179;-79
2023/10/28 07:35:47;;;;;;;9.10;5.57;;;;;;;;;;5072688;28;20411;-79
2023/10/28 07:38:14;;;;;;;8.17;5.50;;;;;;;;;;5074122;28;20507;-79
2023/10/28 07:40:43;;;;;;;9.40;6.10;;;;;;;;;;5076281;28;20456;-80
2023/10/28 07:43:11;;;;;;;10.00;5.57;;;;;;;;;;5076080;28;20507;-79
2023/10/28 07:45:38;;;;;;;11.00;5.90;;;;;;;;;;5076105;28;20508;-82
2023/10/28 07:48:06;;;;;;;8.60;5.53;;;;;;;;;;5076217;28;20506;-79
2023/10/28 07:50:32;;;;;;;10.00;6.80;;;;;;;;;;5076114;28;20762;-81
2023/10/28 07:52:58;;;;;;;8.80;5.70;;;;;;;;;;5075738;28;20502;-78
2023/10/28 07:55:24;;;;;;;7.90;5.33;;;;;;;;;;5076004;28;20450;-81
2023/10/28 07:57:50;;;;;;;9.53;5.80;;;;;;;;;;5075912;28;20500;-80
2023/10/28 08:00:16;;;;;;;11.43;6.33;;;;;;;;;;5075978;28;20452;-78
2023/10/28 08:02:45;;;;;;;11.40;5.50;;;;;;;;;;5075787;28;20851;-77
2023/10/28 08:05:12;;;;;;;10.10;6.60;;;;;;;;;;5075769;28;20421;-83
2023/10/28 08:07:38;;;;;;;10.70;6.67;;;;;;;;;;5075446;28;20395;-77
2023/10/28 08:10:04;;;;;;;9.83;6.97;;;;;;;;;;5075779;28;20423;-77
2023/10/28 08:12:30;;;;;;;11.40;7.27;;;;;;;;;;5075824;28;20489;-80
2023/10/28 08:14:56;;;;;;;10.13;7.00;;;;;;;;;;5075645;28;20415;-82
2023/10/28 08:17:22;;;;;;;9.17;6.57;;;;;;;;;;5074358;28;20418;-80
2023/10/28 08:19:49;;;;;;;11.63;5.93;;;;;;;;;;5075511;28;20918;-78
2023/10/28 08:22:15;;;;;;;11.73;8.10;;;;;;;;;;5075527;28;20458;-78
2023/10/28 08:24:41;;;;;;;10.60;6.23;;;;;;;;;;5075229;28;20422;-77
2023/10/28 08:27:08;;;;;;;11.73;6.90;;;;;;;;;;5075577;28;20772;-79
2023/10/28 08:29:34;;;;;;;11.73;5.87;;;;;;;;;;5075495;28;20531;-82
2023/10/28 08:32:00;;;;;;;12.00;6.60;;;;;;;;;;5074155;28;20932;-78
2023/10/28 08:34:26;;;;;;;10.50;7.40;;;;;;;;;;5077232;28;20435;-80
2023/10/28 08:36:54;;;;;;;14.73;7.43;;;;;;;;;;5084081;28;20410;-78
2023/10/28 08:39:20;;;;;;;13.10;7.77;;;;;;;;;;5074790;28;20411;-79
2023/10/28 08:41:47;;;;;;;12.13;7.23;;;;;;;;;;5074849;28;20479;-79
2023/10/28 08:44:27;;;;;;;10.10;6.00;;;;;;;;;;5074853;28;20400;-80
2023/10/28 08:46:53;;;;;;;12.53;7.07;;;;;;;;;;5074786;28;20861;-78
2023/10/28 08:49:21;;;;;;;12.53;7.30;;;;;;;;;;5077190;28;20431;-84
2023/10/28 08:51:49;;;;;;;12.03;7.33;;;;;;;;;;5115445;28;20405;-78
2023/10/28 08:54:16;;;;;;;12.87;8.17;;;;;;;;;;5115039;28;20409;-80
2023/10/28 08:56:43;;;;;;;10.63;6.80;;;;;;;;;;5115366;28;20413;-83
2023/10/28 08:59:09;;;;;;;12.10;7.90;;;;;;;;;;5115378;28;20418;-83
2023/10/28 09:01:36;;;;;;;14.20;7.57;;;;;;;;;;5113950;28;20477;-86
2023/10/28 09:04:06;;;;;;;13.87;7.07;;;;;;;;;;5113852;28;20453;-78
2023/10/28 09:06:32;;;;;;;11.87;7.53;;;;;;;;;;5114731;28;20454;-80
2023/10/28 09:08:59;;;;;;;12.03;6.80;;;;;;;;;;5096883;28;20420;-85
2023/10/28 09:11:25;;;;;;;10.37;6.33;;;;;;;;;;5115049;28;20402;-82
2023/10/28 09:13:51;;;;;;;9.83;6.80;;;;;;;;;;5114949;28;20418;-81
2023/10/28 09:16:17;;;;;;;9.60;6.47;;;;;;;;;;5115315;28;20412;-81
2023/10/28 09:18:43;;;;;;;10.20;5.63;;;;;;;;;;5115591;28;20404;-89
2023/10/28 09:21:10;;;;;;;12.90;7.67;;;;;;;;;;5115152;28;20415;-85
2023/10/28 09:23:37;;;;;;;13.20;7.87;;;;;;;;;;5114953;28;20800;-85
2023/10/28 09:26:04;;;;;;;18.10;7.60;;;;;;;;;;5115249;28;20403;-78
2023/10/28 09:28:31;;;;;;;11.63;7.90;;;;;;;;;;5114890;28;20446;-81
2023/10/28 09:30:57;;;;;;;12.30;6.77;;;;;;;;;;5114837;28;20465;-78
2023/10/28 09:33:23;;;;;;;11.10;8.00;;;;;;;;;;5114332;28;20436;-77
2023/10/28 09:35:53;;;;;;;12.73;6.97;;;;;;;;;;5114995;28;20410;-81
2023/10/28 09:38:19;;;;;;;13.03;7.67;;;;;;;;;;5114461;28;20921;-82
2023/10/28 09:40:46;;;;;;;12.27;6.20;;;;;;;;;;5114912;28;20406;-77
2023/10/28 09:43:13;;;;;;;11.73;7.83;;;;;;;;;;5114946;28;20476;-85
2023/10/28 09:45:39;;;;;;;11.50;7.23;;;;;;;;;;5115072;28;20834;-78
2023/10/28 09:48:12;;;;;;;12.53;8.43;;;;;;;;;;5114924;28;20466;-90
2023/10/28 09:50:42;;;;;;;12.10;7.63;;;;;;;;;;5113238;28;20555;-81
2023/10/28 09:53:09;;;;;;;15.00;7.00;;;;;;;;;;5114191;28;20441;-76
2023/10/28 09:55:36;;;;;;;9.90;6.70;;;;;;;;;;5114780;28;20475;-76
2023/10/28 09:58:08;;;;;;;10.97;7.33;;;;;;;;;;5114451;28;20906;-76
2023/10/28 10:00:37;;;;;;;9.70;7.10;;;;;;;;;;5113675;28;20407;-75
2023/10/28 10:03:16;;;;;;;13.37;8.47;;;;;;;;;;5114357;28;20604;-89
2023/10/28 10:05:43;;;;;;;11.03;8.20;;;;;;;;;;5113660;28;20429;-77
2023/10/28 10:08:18;;;;;;;15.63;9.63;;;;;;;;;;5114269;28;20422;-79
2023/10/28 10:10:47;;;;;;;13.33;7.07;;;;;;;;;;5114720;28;20405;-83
2023/10/28 10:13:16;;;;;;;13.17;7.80;;;;;;;;;;5113873;28;20419;-79
2023/10/28 10:15:52;;;;;;;11.03;7.53;;;;;;;;;;5114278;28;20445;-90
2023/10/28 10:18:23;;;;;;;10.53;7.30;;;;;;;;;;5116034;28;20431;-91
2023/10/28 10:20:49;;;;;;;12.27;7.60;;;;;;;;;;5116997;28;20499;-95
2023/10/28 10:23:15;;;;;;;10.20;6.63;;;;;;;;;;5115131;28;20457;-92
2023/10/28 10:25:45;;;;;;;10.23;7.43;;;;;;;;;;5115400;28;20815;-93
2023/10/28 10:28:19;;;;;;;11.00;7.20;;;;;;;;;;5114500;28;20442;-93
2023/10/28 10:30:45;;;;;;;10.73;7.47;;;;;;;;;;5114867;28;20409;-86
2023/10/28 10:33:11;;;;;;;14.03;7.77;;;;;;;;;;5113984;28;20434;-93
2023/10/28 10:35:37;;;;;;;14.20;7.67;;;;;;;;;;5116691;28;20406;-95
2023/10/28 10:38:04;;;;;;;11.27;7.10;;;;;;;;;;5115395;28;20406;-96
2023/10/28 10:40:32;;;;;;;8.57;6.20;;;;;;;;;;5097374;28;20406;-87
2023/10/28 10:43:03;;;;;;;10.57;6.40;;;;;;;;;;5093518;28;20821;-94
2023/10/28 10:45:29;;;;;;;10.63;6.40;;;;;;;;;;5091360;28;20950;-91
2023/10/28 10:47:55;;;;;;;9.10;5.53;;;;;;;;;;5093759;28;20557;-88
2023/10/28 10:50:22;;;;;;;9.90;6.50;;;;;;;;;;5099165;28;20512;-88
2023/10/28 10:52:49;;;;;;;8.80;5.83;;;;;;;;;;5090132;28;20856;-79
2023/10/28 10:55:22;;;;;;;8.90;6.47;;;;;;;;;;5093640;28;20421;-85
2023/10/28 10:57:48;;;;;;;12.63;6.67;;;;;;;;;;5093462;28;20468;-90
2023/10/28 11:00:14;;;;;;;10.43;7.10;;;;;;;;;;5093454;28;20403;-87
2023/10/28 11:02:40;;;;;;;9.20;6.90;;;;;;;;;;5093022;28;20383;-88
2023/10/28 11:05:08;;;;;;;14.03;6.40;;;;;;;;;;5092162;28;20477;-83
2023/10/28 11:07:34;;;;;;;10.63;5.83;;;;;;;;;;5092904;28;20499;-86
2023/10/28 11:10:00;;;;;;;8.73;5.20;;;;;;;;;;5093364;28;20453;-84
2023/10/28 11:12:25;;;;;;;8.90;5.57;;;;;;;;;;5094655;28;20422;-88
2023/10/28 11:14:55;;;;;;;10.23;6.30;;;;;;;;;;5097890;28;20410;-80
2023/10/28 11:17:21;;;;;;;10.23;6.47;;;;;;;;;;5097540;28;20770;-80
2023/10/28 11:19:48;;;;;;;12.60;6.40;;;;;;;;;;5096353;28;20437;-82
2023/10/28 11:22:15;;;;;;;10.30;7.23;;;;;;;;;;5096564;28;20458;-79
2023/10/28 11:24:42;;;;;;;9.80;6.37;;;;;;;;;;5116577;28;20433;-82
2023/10/28 11:27:08;;;;;;;11.57;6.87;;;;;;;;;;5111738;28;20435;-79
2023/10/28 11:29:38;;;;;;;9.67;6.77;;;;;;;;;;5095508;28;20992;-85
2023/10/28 11:32:07;;;;;;;13.20;7.97;;;;;;;;;;5096804;28;20761;-84
2023/10/28 11:34:39;;;;;;;11.13;7.90;;;;;;;;;;5096866;28;20415;-84
2023/10/28 11:37:07;;;;;;;12.70;7.80;;;;;;;;;;5096538;28;20740;-84
2023/10/28 11:39:34;;;;;;;13.37;8.30;;;;;;;;;;5096998;28;20468;-88
2023/10/28 11:42:08;;;;;;;12.70;8.10;;;;;;;;;;5096706;28;20825;-83
2023/10/28 11:44:34;;;;;;;11.50;8.07;;;;;;;;;;5096730;28;20407;-86
2023/10/28 11:47:01;;;;;;;12.60;8.50;;;;;;;;;;5097443;28;20491;-82
2023/10/28 11:49:27;;;;;;;13.20;8.87;;;;;;;;;;5116900;28;20403;-84
2023/10/28 11:51:53;;;;;;;12.30;8.90;;;;;;;;;;5117009;28;20918;-82
2023/10/28 11:54:19;;;;;;;12.73;9.30;;;;;;;;;;5116753;28;20407;-88
2023/10/28 11:56:44;;;;;;;15.27;10.00;;;;;;;;;;5117057;28;20419;-85
2023/10/28 11:59:11;;;;;;;14.60;9.17;;;;;;;;;;5117518;28;20407;-81
2023/10/28 12:01:37;;;;;;;13.07;9.13;;;;;;;;;;5117210;28;20472;-91
2023/10/28 12:04:03;;;;;;;10.33;7.80;;;;;;;;;;5117093;28;20433;-88
2023/10/28 12:06:33;;;;;;;15.60;9.10;;;;;;;;;;5116942;28;20406;-82
2023/10/28 12:09:00;;;;;;;16.63;9.53;;;;;;;;;;5116909;28;20804;-78
2023/10/28 12:11:27;;;;;;;20.70;10.60;;;;;;;;;;5116699;28;20415;-79
2023/10/28 12:13:53;;;;;;;18.60;10.90;;;;;;;;;;5115665;28;20422;-94
2023/10/28 12:16:19;;;;;;;18.53;10.70;;;;;;;;;;5116845;28;20421;-78
2023/10/28 12:18:44;;;;;;;17.20;9.70;;;;;;;;;;5116900;28;20418;-92
2023/10/28 12:21:12;;;;;;;15.63;11.60;;;;;;;;;;5117073;28;20413;-83
2023/10/28 12:23:38;;;;;;;17.17;10.03;;;;;;;;;;5092230;28;20848;-92
2023/10/28 12:26:04;;;;;;;19.60;12.50;;;;;;;;;;5085755;28;20491;-86
2023/10/28 12:28:30;;;;;;;16.23;10.10;;;;;;;;;;5079890;28;20236;-79
2023/10/28 12:30:56;;;;;;;19.50;11.00;;;;;;;;;;5079997;28;20424;-89
2023/10/28 12:33:22;;;;;;;19.20;10.90;;;;;;;;;;5080275;28;20953;-79
2023/10/28 12:35:48;;;;;;;19.57;12.30;;;;;;;;;;5080049;28;20421;-78
2023/10/28 12:38:14;;;;;;;20.17;10.97;;;;;;;;;;5079312;28;20519;-83
2023/10/28 12:40:40;;;;;;;18.27;10.40;;;;;;;;;;5081466;28;20460;-90
2023/10/28 12:43:06;;;;;;;18.47;11.13;;;;;;;;;;5080583;28;20257;-79
2023/10/28 12:45:32;;;;;;;16.80;10.37;;;;;;;;;;5080735;28;20490;-81
2023/10/28 12:47:58;;;;;;;19.47;10.20;;;;;;;;;;5080163;28;20222;-78
2023/10/28 12:50:24;;;;;;;17.37;9.97;;;;;;;;;;5079689;28;20467;-88
2023/10/28 12:52:50;;;;;;;17.90;10.43;;;;;;;;;;5079797;28;20430;-88
2023/10/28 12:55:17;;;;;;;14.77;9.27;;;;;;;;;;5080210;28;20433;-80
2023/10/28 12:57:43;;;;;;;14.60;10.50;;;;;;;;;;5078698;28;20438;-78
2023/10/28 13:00:10;;;;;;;18.90;10.73;;;;;;;;;;5079143;28;20496;-81
2023/10/28 13:02:36;;;;;;;12.90;7.63;;;;;;;;;;5078935;28;20513;-79
2023/10/28 13:05:03;;;;;;;16.00;9.90;;;;;;;;;;5079659;28;20484;-80
2023/10/28 13:07:34;;;;;;;16.53;10.80;;;;;;;;;;5079086;28;20522;-85
2023/10/28 13:10:00;;;;;;;16.50;9.70;;;;;;;;;;5079781;28;20435;-83
2023/10/28 13:12:26;;;;;;;14.10;9.67;;;;;;;;;;5079856;28;20438;-79
2023/10/28 13:14:52;;;;;;;14.43;9.67;;;;;;;;;;5079287;28;20458;-78
2023/10/28 13:17:19;;;;;;;14.70;11.70;;;;;;;;;;5079607;28;20447;-82
2023/10/28 13:19:45;;;;;;;15.80;8.63;;;;;;;;;;5079627;28;20458;-91
2023/10/28 13:22:11;;;;;;;13.20;9.17;;;;;;;;;;5077660;28;20502;-78
2023/10/28 13:24:38;;;;;;;13.47;8.80;;;;;;;;;;5078873;28;20437;-90
2023/10/28 13:27:04;;;;;;;14.17;8.97;;;;;;;;;;5079078;28;20173;-82
2023/10/28 13:29:30;;;;;;;11.13;8.30;;;;;;;;;;5078490;28;20981;-82
2023/10/28 13:31:56;;;;;;;11.40;7.73;;;;;;;;;;5079084;28;20439;-79
2023/10/28 13:34:24;;;;;;;14.33;8.80;;;;;;;;;;5078719;28;20426;-83
2023/10/28 13:36:50;;;;;;;12.70;8.97;;;;;;;;;;5077001;28;20439;-79
2023/10/28 13:39:16;;;;;;;11.93;8.30;;;;;;;;;;5079182;28;20598;-83
2023/10/28 13:41:42;;;;;;;10.17;8.17;;;;;;;;;;5086330;28;20207;-82
2023/10/28 13:44:08;;;;;;;12.07;8.63;;;;;;;;;;5087923;28;20766;-80
2023/10/28 13:46:34;;;;;;;12.00;7.70;;;;;;;;;;5085636;28;20910;-81
2023/10/28 13:49:00;;;;;;;13.50;8.93;;;;;;;;;;5085884;28;20464;-80
2023/10/28 13:51:27;;;;;;;10.60;8.43;;;;;;;;;;5086431;28;20453;-81
2023/10/28 13:53:53;;;;;;;12.10;7.70;;;;;;;;;;5078011;28;20446;-81
2023/10/28 13:56:20;;;;;;;11.77;8.00;;;;;;;;;;5078759;28;20523;-81
2023/10/28 13:58:46;;;;;;;11.80;7.83;;;;;;;;;;5078904;28;20937;-82
2023/10/28 14:01:12;;;;;;;10.73;7.13;;;;;;;;;;5078444;28;20434;-80
2023/10/28 14:03:38;;;;;;;12.20;8.70;;;;;;;;;;5078996;28;20496;-82
2023/10/28 14:06:11;;;;;;;13.23;7.80;;;;;;;;;;5078336;28;20461;-81
2023/10/28 14:08:38;;;;;;;12.13;8.13;;;;;;;;;;5078452;28;20776;-80
2023/10/28 14:11:04;;;;;;;13.20;8.27;;;;;;;;;;5078345;28;20438;-82
2023/10/28 14:13:30;;;;;;;8.70;6.07;;;;;;;;;;5077959;28;21015;-81
2023/10/28 14:15:56;;;;;;;10.60;7.30;;;;;;;;;;5078633;28;20475;-82
2023/10/28 14:18:22;;;;;;;12.57;7.37;;;;;;;;;;5078007;28;20858;-80
2023/10/28 14:20:49;;;;;;;10.30;6.83;;;;;;;;;;5078538;28;20522;-80
2023/10/28 14:23:16;;;;;;;8.60;6.50;;;;;;;;;;5078208;28;20589;-80
2023/10/28 14:25:42;;;;;;;10.20;6.50;;;;;;;;;;5077655;28;20465;-79
2023/10/28 14:28:07;;;;;;;11.80;6.13;;;;;;;;;;5078434;28;20462;-79
2023/10/28 14:30:36;;;;;;;10.83;7.13;;;;;;;;;;5078130;28;20201;-79
2023/10/28 14:33:04;;;;;;;8.57;6.10;;;;;;;;;;5078456;28;20494;-81